Time;durP1;ratioP1;P1;durP2;ratioP2;P2;SDS_P1;SDS_P2;PMS_P1;PMS_P2;Temp;Humidity;BMP_temperature;BMP_pressure;BME280_temperature;BME280_humidity;BME280_pressure;Samples;Min_cycle;Max_cycle;Signal;HPM_P1;HPM_P2
2023/07/21 00:01:18;;;;;;;19.23;8.10;;;11.30;99.90;;;;;;5046742;28;20049;-58
2023/07/21 00:03:46;;;;;;;15.98;8.77;;;11.20;99.90;;;;;;5045355;28;20419;-59
2023/07/21 00:06:17;;;;;;;14.93;8.07;;;11.10;99.90;;;;;;5047368;28;20037;-59
2023/07/21 00:08:46;;;;;;;15.38;8.60;;;11.20;99.90;;;;;;5047093;28;20045;-58
2023/07/21 00:11:14;;;;;;;14.43;7.93;;;11.10;99.90;;;;;;5047075;28;20049;-61
2023/07/21 00:13:41;;;;;;;13.20;8.05;;;11.10;99.90;;;;;;5048212;28;20049;-59
2023/07/21 00:16:09;;;;;;;17.73;9.10;;;11.10;99.90;;;;;;5047447;28;20045;-58
2023/07/21 00:18:37;;;;;;;15.48;7.32;;;11.10;99.90;;;;;;5046852;28;20056;-58
2023/07/21 00:21:05;;;;;;;16.40;8.10;;;11.00;99.90;;;;;;5047697;28;20041;-58
2023/07/21 00:23:33;;;;;;;16.23;8.63;;;11.00;99.90;;;;;;5054015;28;20037;-58
2023/07/21 00:26:01;;;;;;;19.40;8.95;;;10.90;99.90;;;;;;5048143;28;20049;-58
2023/07/21 00:28:29;;;;;;;18.30;8.65;;;10.90;99.90;;;;;;5053527;28;20044;-58
2023/07/21 00:30:56;;;;;;;17.17;8.90;;;10.90;99.90;;;;;;5047144;28;20524;-58
2023/07/21 00:33:25;;;;;;;18.40;9.38;;;10.80;99.90;;;;;;5053004;28;20041;-58
2023/07/21 00:35:55;;;;;;;15.45;8.40;;;10.80;99.90;;;;;;5036409;28;20523;-58
2023/07/21 00:38:25;;;;;;;14.73;8.15;;;10.80;99.90;;;;;;5052900;28;20052;-58
2023/07/21 00:40:53;;;;;;;15.77;8.13;;;10.80;99.90;;;;;;5035215;28;20040;-58
2023/07/21 00:43:20;;;;;;;17.45;8.10;;;10.80;99.90;;;;;;5055541;28;20052;-58
2023/07/21 00:45:48;;;;;;;17.73;8.80;;;10.80;99.90;;;;;;5053534;28;20480;-58
2023/07/21 00:48:18;;;;;;;17.33;9.73;;;10.70;99.90;;;;;;5033883;28;20394;-58
2023/07/21 00:50:51;;;;;;;15.38;8.90;;;10.70;99.90;;;;;;5051439;28;20495;-58
2023/07/21 00:53:20;;;;;;;17.95;9.52;;;10.70;99.90;;;;;;5048268;28;20045;-58
2023/07/21 00:55:48;;;;;;;18.60;9.27;;;10.70;99.90;;;;;;5030271;28;20052;-57
2023/07/21 00:58:18;;;;;;;17.55;9.25;;;10.70;99.90;;;;;;5050476;28;20481;-57
2023/07/21 01:00:46;;;;;;;19.92;9.13;;;10.70;99.90;;;;;;5044534;28;20055;-58
2023/07/21 01:03:17;;;;;;;17.00;8.57;;;10.60;99.90;;;;;;5046985;28;20060;-58
2023/07/21 01:05:52;;;;;;;16.80;9.07;;;10.20;99.90;;;;;;5047000;28;20060;-58
2023/07/21 01:08:21;;;;;;;21.67;8.98;;;10.60;99.90;;;;;;5048603;28;20075;-58
2023/07/21 01:10:50;;;;;;;15.85;8.27;;;10.60;99.90;;;;;;5044953;28;20099;-58
2023/07/21 01:13:18;;;;;;;20.85;8.32;;;10.60;99.90;;;;;;5051507;28;20053;-58
2023/07/21 01:15:50;;;;;;;18.00;8.52;;;10.60;99.90;;;;;;5054805;28;20041;-58
2023/07/21 01:18:20;;;;;;;14.50;7.80;;;10.60;99.90;;;;;;5051088;28;20484;-58
2023/07/21 01:20:49;;;;;;;17.63;8.77;;;10.60;99.90;;;;;;5052028;28;20052;-58
2023/07/21 01:23:24;;;;;;;16.05;8.63;;;10.60;99.90;;;;;;5051276;28;20049;-58
2023/07/21 01:25:55;;;;;;;20.17;9.43;;;10.60;99.90;;;;;;5046891;28;20033;-58
2023/07/21 01:28:24;;;;;;;17.83;7.90;;;10.60;99.90;;;;;;5046151;28;20396;-58
2023/07/21 01:30:53;;;;;;;20.77;10.43;;;10.60;99.90;;;;;;5013400;28;20061;-59
2023/07/21 01:33:22;;;;;;;21.27;9.52;;;10.60;99.90;;;;;;5043069;28;20041;-58
2023/07/21 01:35:51;;;;;;;24.63;9.57;;;10.60;99.90;;;;;;5053834;28;20412;-57
2023/07/21 01:38:22;;;;;;;21.30;10.50;;;10.60;99.90;;;;;;5052284;28;20044;-58
2023/07/21 01:40:51;;;;;;;20.42;9.80;;;10.60;99.90;;;;;;5047258;28;20492;-58
2023/07/21 01:43:23;;;;;;;20.48;8.98;;;10.60;99.90;;;;;;5052951;28;20056;-58
2023/07/21 01:45:51;;;;;;;20.10;10.73;;;10.60;99.90;;;;;;5050672;28;20041;-58
2023/07/21 01:48:19;;;;;;;21.23;9.30;;;10.60;99.90;;;;;;5049502;28;20048;-57
2023/07/21 01:50:48;;;;;;;18.67;9.57;;;10.60;99.90;;;;;;5039598;28;20033;-57
2023/07/21 01:53:22;;;;;;;21.58;9.23;;;10.70;99.90;;;;;;5044032;28;20045;-58
2023/07/21 01:56:18;;;;;;;21.60;10.15;;;10.60;99.90;;;;;;5048467;28;20044;-58
2023/07/21 01:58:47;;;;;;;18.48;9.10;;;10.70;99.90;;;;;;5047121;28;20517;-58
2023/07/21 02:01:17;;;;;;;20.77;10.18;;;10.70;99.90;;;;;;5051497;28;20033;-57
2023/07/21 02:03:47;;;;;;;18.15;10.00;;;10.70;99.90;;;;;;5050896;28;20056;-58
2023/07/21 02:06:16;;;;;;;20.45;10.48;;;10.80;99.90;;;;;;5048169;28;20045;-58
2023/07/21 02:08:44;;;;;;;20.33;9.75;;;10.80;99.90;;;;;;5051223;28;20053;-58
2023/07/21 02:11:12;;;;;;;20.55;9.95;;;10.80;99.90;;;;;;5052767;28;20037;-58
2023/07/21 02:13:49;;;;;;;20.42;10.23;;;10.90;99.90;;;;;;5050048;28;20408;-58
2023/07/21 02:16:17;;;;;;;19.02;9.65;;;11.00;99.90;;;;;;5035028;28;20041;-58
2023/07/21 02:18:44;;;;;;;18.88;8.80;;;11.00;99.90;;;;;;5051905;28;20045;-58
2023/07/21 02:21:12;;;;;;;19.05;8.77;;;11.00;99.90;;;;;;5047325;28;20039;-58
2023/07/21 02:23:40;;;;;;;18.88;9.35;;;11.10;99.90;;;;;;5051864;28;20052;-58
2023/07/21 02:26:07;;;;;;;17.90;9.15;;;11.10;99.90;;;;;;5032915;28;20060;-58
2023/07/21 02:28:36;;;;;;;22.15;9.80;;;11.10;99.90;;;;;;5045450;28;20374;-58
2023/07/21 02:31:06;;;;;;;19.50;10.32;;;11.10;99.90;;;;;;5048445;28;20044;-58
2023/07/21 02:33:34;;;;;;;18.05;9.20;;;11.10;99.90;;;;;;5052166;28;20049;-58
2023/07/21 02:36:04;;;;;;;17.13;9.05;;;11.10;99.90;;;;;;5045138;28;20040;-58
2023/07/21 02:38:32;;;;;;;20.17;9.30;;;11.20;99.90;;;;;;5043475;28;20056;-58
2023/07/21 02:41:05;;;;;;;19.63;9.65;;;11.20;99.90;;;;;;5051759;28;20056;-58
2023/07/21 02:43:33;;;;;;;20.42;9.13;;;11.20;99.90;;;;;;5048485;28;20503;-57
2023/07/21 02:46:01;;;;;;;20.20;10.00;;;11.20;99.90;;;;;;5048246;28;20491;-57
2023/07/21 02:48:31;;;;;;;17.02;9.13;;;11.30;99.90;;;;;;5044092;28;20052;-57
2023/07/21 02:51:00;;;;;;;19.10;10.40;;;11.20;99.90;;;;;;5050440;28;20041;-57
2023/07/21 02:53:32;;;;;;;18.48;9.40;;;11.30;99.90;;;;;;5050773;28;20037;-58
2023/07/21 02:56:03;;;;;;;21.43;9.60;;;11.30;99.90;;;;;;5034927;28;20619;-57
2023/07/21 02:58:43;;;;;;;20.25;10.25;;;11.30;99.90;;;;;;5034387;28;20049;-57
2023/07/21 03:01:15;;;;;;;20.73;9.40;;;11.30;99.90;;;;;;5047746;28;20033;-58
2023/07/21 03:03:44;;;;;;;16.45;9.93;;;11.40;99.90;;;;;;5049586;28;20053;-57
2023/07/21 03:06:15;;;;;;;17.48;9.55;;;11.40;99.90;;;;;;5042572;28;20520;-58
2023/07/21 03:08:43;;;;;;;18.35;8.40;;;11.40;99.90;;;;;;5049502;28;20049;-58
2023/07/21 03:11:13;;;;;;;17.13;8.65;;;11.50;99.90;;;;;;5050237;28;20056;-58
2023/07/21 03:14:00;;;;;;;16.58;8.43;;;11.50;99.90;;;;;;5046907;28;20049;-58
2023/07/21 03:16:29;;;;;;;17.63;8.82;;;11.50;99.90;;;;;;5047779;28;20120;-59
2023/07/21 03:18:57;;;;;;;18.85;9.32;;;11.60;99.90;;;;;;5032779;28;20082;-59
2023/07/21 03:21:26;;;;;;;17.30;9.13;;;11.60;99.90;;;;;;5050773;28;20037;-57
2023/07/21 03:23:55;;;;;;;19.17;9.20;;;11.70;99.90;;;;;;5046182;28;20420;-57
2023/07/21 03:26:28;;;;;;;17.20;9.07;;;11.70;99.90;;;;;;5046428;28;20056;-57
2023/07/21 03:28:55;;;;;;;17.52;8.95;;;11.70;99.90;;;;;;5051795;28;20061;-57
2023/07/21 03:31:25;;;;;;;14.98;8.52;;;11.80;99.90;;;;;;5049672;28;20052;-57
2023/07/21 03:33:58;;;;;;;16.48;8.07;;;11.80;99.90;;;;;;5048601;28;20048;-57
2023/07/21 03:36:28;;;;;;;15.57;8.48;;;11.90;99.90;;;;;;5048625;28;20071;-57
2023/07/21 03:38:55;;;;;;;19.98;9.93;;;11.90;99.90;;;;;;5049343;28;20500;-57
2023/07/21 03:41:23;;;;;;;18.33;8.82;;;11.90;99.90;;;;;;5048648;28;20052;-57
2023/07/21 03:43:51;;;;;;;16.80;8.85;;;11.90;99.90;;;;;;5050222;28;20052;-58
2023/07/21 03:46:20;;;;;;;15.70;8.73;;;11.90;99.90;;;;;;5047604;28;20052;-57
2023/07/21 03:49:11;;;;;;;18.30;9.25;;;11.90;99.90;;;;;;5044556;28;20412;-58
2023/07/21 03:51:43;;;;;;;15.98;9.00;;;11.90;99.90;;;;;;5047932;28;20388;-58
2023/07/21 03:54:14;;;;;;;15.93;8.23;;;11.90;99.90;;;;;;5048642;28;20045;-57
2023/07/21 03:56:42;;;;;;;18.77;9.55;;;11.90;99.90;;;;;;5048149;28;20492;-58
2023/07/21 03:59:11;;;;;;;19.38;9.43;;;11.90;99.90;;;;;;5049321;28;20041;-59
2023/07/21 04:01:39;;;;;;;19.02;9.45;;;11.90;99.90;;;;;;5049792;28;20496;-60
2023/07/21 04:04:07;;;;;;;18.92;9.35;;;11.90;99.90;;;;;;5032961;28;20056;-62
2023/07/21 04:06:35;;;;;;;17.70;8.63;;;11.90;99.90;;;;;;5046332;28;20057;-62
2023/07/21 04:09:02;;;;;;;18.50;8.95;;;11.90;99.90;;;;;;5050148;28;20044;-60
2023/07/21 04:11:30;;;;;;;20.60;10.10;;;11.90;99.90;;;;;;5048302;28;20511;-61
2023/07/21 04:13:59;;;;;;;17.88;8.70;;;11.90;99.90;;;;;;5049166;28;20041;-61
2023/07/21 04:16:27;;;;;;;20.55;8.80;;;11.90;99.90;;;;;;5049575;28;20382;-62
2023/07/21 04:18:55;;;;;;;18.02;8.25;;;11.90;99.90;;;;;;5047687;28;20055;-61
2023/07/21 04:21:23;;;;;;;19.67;8.55;;;11.90;99.90;;;;;;5048412;28;20041;-62
2023/07/21 04:23:51;;;;;;;18.55;9.05;;;11.70;99.90;;;;;;5033449;28;20045;-62
2023/07/21 04:26:20;;;;;;;20.45;9.00;;;11.80;99.90;;;;;;5046274;28;20041;-61
2023/07/21 04:28:47;;;;;;;16.02;8.40;;;11.80;99.90;;;;;;5045097;28;20045;-57
2023/07/21 04:31:21;;;;;;;20.00;8.93;;;11.80;99.90;;;;;;5048462;28;20041;-58
2023/07/21 04:34:04;;;;;;;19.17;9.07;;;11.80;99.90;;;;;;5045889;28;20048;-58
2023/07/21 04:36:35;;;;;;;18.40;9.77;;;11.80;99.90;;;;;;5028526;28;20049;-59
2023/07/21 04:39:08;;;;;;;19.90;9.20;;;11.80;99.90;;;;;;5030911;28;20053;-57
2023/07/21 04:41:37;;;;;;;18.27;8.90;;;11.90;99.90;;;;;;5048530;28;20377;-58
2023/07/21 04:44:04;;;;;;;19.27;9.48;;;11.90;99.90;;;;;;5049791;28;20489;-57
2023/07/21 04:46:32;;;;;;;16.45;8.52;;;11.90;99.90;;;;;;5048921;28;20060;-57
2023/07/21 04:49:00;;;;;;;16.00;9.25;;;11.90;99.90;;;;;;5034283;28;20049;-57
2023/07/21 04:51:40;;;;;;;18.58;10.13;;;11.90;99.90;;;;;;5046268;28;20041;-57
2023/07/21 04:54:08;;;;;;;17.85;9.40;;;11.90;99.90;;;;;;5038201;28;20041;-57
2023/07/21 04:56:35;;;;;;;18.60;10.15;;;11.90;99.90;;;;;;5046967;28;20481;-58
2023/07/21 04:59:03;;;;;;;17.08;8.60;;;12.00;99.90;;;;;;5044795;28;20051;-57
2023/07/21 05:01:31;;;;;;;20.13;9.98;;;11.90;99.90;;;;;;5027534;28;20044;-57
2023/07/21 05:03:59;;;;;;;18.15;9.50;;;12.00;99.90;;;;;;5011267;28;20464;-58
2023/07/21 05:06:28;;;;;;;19.48;9.48;;;12.00;99.90;;;;;;5027862;28;20048;-61
2023/07/21 05:08:57;;;;;;;20.00;9.55;;;12.00;99.90;;;;;;5042043;28;20040;-58
2023/07/21 05:11:25;;;;;;;19.90;9.07;;;11.90;99.90;;;;;;5046910;28;20053;-57
2023/07/21 05:13:53;;;;;;;20.50;9.35;;;12.00;99.90;;;;;;5053265;28;20037;-58
2023/07/21 05:16:39;;;;;;;18.35;9.43;;;12.00;99.90;;;;;;5047211;28;20063;-58
2023/07/21 05:19:30;;;;;;;17.67;9.50;;;12.00;99.90;;;;;;5037537;28;20060;-58
2023/07/21 05:22:25;;;;;;;18.20;8.43;;;12.10;99.90;;;;;;5046072;28;20075;-57
2023/07/21 05:25:05;;;;;;;16.23;8.98;;;12.10;99.90;;;;;;5043032;28;20059;-58
2023/07/21 05:27:35;;;;;;;17.85;8.88;;;12.10;99.90;;;;;;5047616;28;20041;-57
2023/07/21 05:30:09;;;;;;;17.08;9.98;;;12.20;99.90;;;;;;5048506;28;20052;-57
2023/07/21 05:32:41;;;;;;;18.70;9.18;;;12.20;99.90;;;;;;5048449;28;20044;-57
2023/07/21 05:35:14;;;;;;;18.58;9.10;;;12.20;99.90;;;;;;5048180;28;20354;-58
2023/07/21 05:37:46;;;;;;;20.10;9.30;;;12.20;99.90;;;;;;5044689;28;20045;-57
2023/07/21 05:40:14;;;;;;;18.05;9.25;;;12.20;99.90;;;;;;5046169;28;20404;-61
2023/07/21 05:42:46;;;;;;;18.52;9.55;;;12.30;99.90;;;;;;5042127;28;20045;-58
2023/07/21 05:45:14;;;;;;;18.88;9.50;;;12.40;99.90;;;;;;5043105;28;20527;-62
2023/07/21 05:47:43;;;;;;;18.90;10.02;;;12.40;99.90;;;;;;5037573;28;20523;-58
2023/07/21 05:50:11;;;;;;;20.17;9.98;;;12.50;99.90;;;;;;5025243;28;20048;-57
2023/07/21 05:52:42;;;;;;;19.33;9.30;;;12.50;99.90;;;;;;5028656;28;20049;-57
2023/07/21 05:55:17;;;;;;;17.40;9.05;;;12.60;99.90;;;;;;5042142;28;20045;-58
2023/07/21 05:57:45;;;;;;;21.58;9.93;;;12.60;99.90;;;;;;5047979;28;20507;-57
2023/07/21 06:00:15;;;;;;;14.40;8.63;;;12.70;99.90;;;;;;5038498;28;21074;-57
2023/07/21 06:02:50;;;;;;;19.20;9.75;;;12.70;99.90;;;;;;5042078;28;20052;-57
2023/07/21 06:05:18;;;;;;;19.45;9.23;;;12.80;99.90;;;;;;5031971;28;20049;-57
2023/07/21 06:08:09;;;;;;;15.70;8.40;;;12.80;99.90;;;;;;5046303;28;20420;-58
2023/07/21 06:11:02;;;;;;;18.50;8.60;;;12.90;99.90;;;;;;5050910;28;20068;-58
2023/07/21 06:13:50;;;;;;;13.48;6.72;;;12.90;99.90;;;;;;5045513;28;20053;-58
2023/07/21 06:16:31;;;;;;;19.35;8.80;;;12.90;99.90;;;;;;5046141;28;20053;-58
2023/07/21 06:19:00;;;;;;;15.55;8.50;;;12.90;99.90;;;;;;5044894;28;20036;-58
2023/07/21 06:21:28;;;;;;;16.23;7.63;;;13.00;99.90;;;;;;5035925;28;20075;-58
2023/07/21 06:23:56;;;;;;;15.23;8.40;;;13.00;99.90;;;;;;5036008;28;20037;-58
2023/07/21 06:26:24;;;;;;;16.60;8.55;;;13.00;99.90;;;;;;5034367;28;20594;-58
2023/07/21 06:28:52;;;;;;;15.68;8.10;;;13.00;99.90;;;;;;5045230;28;20430;-61
2023/07/21 06:31:22;;;;;;;15.63;7.47;;;13.10;99.90;;;;;;5045083;28;20037;-60
2023/07/21 06:33:59;;;;;;;13.02;7.53;;;13.00;99.90;;;;;;5047264;28;20037;-62
2023/07/21 06:36:30;;;;;;;18.35;9.05;;;13.10;99.90;;;;;;5042030;28;20499;-62
2023/07/21 06:39:24;;;;;;;16.35;7.70;;;13.10;99.90;;;;;;5058682;28;20060;-62
2023/07/21 06:42:07;;;;;;;15.43;8.10;;;13.10;99.90;;;;;;5047734;28;20047;-62
2023/07/21 06:44:55;;;;;;;14.98;7.30;;;13.10;99.90;;;;;;5050777;28;20068;-61
2023/07/21 06:47:46;;;;;;;15.77;6.93;;;13.20;99.90;;;;;;5052468;28;20068;-58
2023/07/21 06:50:32;;;;;;;17.20;7.70;;;13.20;99.90;;;;;;5047937;28;20048;-57
2023/07/21 06:53:04;;;;;;;14.52;7.40;;;13.30;99.90;;;;;;5044165;28;20063;-57
2023/07/21 06:55:33;;;;;;;18.17;7.78;;;13.30;99.90;;;;;;5046598;28;20045;-57
2023/07/21 06:58:01;;;;;;;11.80;6.63;;;13.40;99.90;;;;;;5045582;28;20041;-58
2023/07/21 07:00:32;;;;;;;15.98;7.22;;;13.50;99.90;;;;;;5031659;28;20048;-58
2023/07/21 07:03:01;;;;;;;14.75;6.90;;;13.50;99.90;;;;;;5038879;28;20036;-58
2023/07/21 07:05:29;;;;;;;13.35;7.38;;;13.60;99.90;;;;;;5043613;28;20041;-58
2023/07/21 07:07:57;;;;;;;11.80;6.15;;;13.60;99.90;;;;;;5037407;28;20041;-58
2023/07/21 07:10:25;;;;;;;10.15;5.90;;;13.70;99.90;;;;;;5040860;28;20052;-58
2023/07/21 07:12:53;;;;;;;12.05;6.07;;;13.70;99.90;;;;;;5041410;28;20045;-58
2023/07/21 07:15:21;;;;;;;12.15;6.20;;;13.80;99.90;;;;;;5043014;28;20583;-58
2023/07/21 07:17:49;;;;;;;12.23;5.35;;;13.90;99.90;;;;;;5043980;28;20404;-57
2023/07/21 07:20:18;;;;;;;10.55;5.82;;;13.90;99.90;;;;;;5041987;28;20049;-58
2023/07/21 07:22:45;;;;;;;10.27;5.53;;;14.00;99.90;;;;;;5045007;28;20041;-57
2023/07/21 07:25:13;;;;;;;8.45;4.68;;;14.10;99.90;;;;;;5043497;28;20056;-57
2023/07/21 07:27:41;;;;;;;11.70;5.35;;;14.10;99.90;;;;;;5042937;28;20468;-57
2023/07/21 07:30:10;;;;;;;9.63;4.88;;;14.10;99.90;;;;;;5039155;28;20057;-58
2023/07/21 07:32:38;;;;;;;8.85;4.95;;;14.20;99.90;;;;;;5040296;28;20053;-60
2023/07/21 07:35:06;;;;;;;9.68;5.00;;;14.20;99.90;;;;;;5039882;28;20044;-58
2023/07/21 07:37:33;;;;;;;9.93;4.28;;;14.30;99.90;;;;;;5041249;28;21025;-58
2023/07/21 07:40:03;;;;;;;11.90;5.05;;;14.30;99.90;;;;;;5038421;28;20069;-59
2023/07/21 07:42:32;;;;;;;10.80;5.15;;;14.30;99.90;;;;;;5043586;28;20045;-59
2023/07/21 07:45:00;;;;;;;9.77;5.40;;;14.40;99.90;;;;;;5033367;28;20052;-60
2023/07/21 07:47:29;;;;;;;9.60;4.40;;;14.40;99.90;;;;;;5040471;28;20045;-58
2023/07/21 07:49:57;;;;;;;9.93;4.90;;;14.40;99.90;;;;;;5044311;28;20053;-59
2023/07/21 07:52:25;;;;;;;9.18;5.30;;;14.50;99.90;;;;;;5044597;28;20075;-62
2023/07/21 07:54:53;;;;;;;8.93;5.10;;;14.50;99.90;;;;;;5048976;28;20517;-61
2023/07/21 07:57:24;;;;;;;10.18;5.28;;;14.60;99.90;;;;;;5043911;28;20048;-59
2023/07/21 07:59:51;;;;;;;10.35;5.07;;;14.60;99.90;;;;;;5046219;28;20049;-58
2023/07/21 08:02:19;;;;;;;13.40;5.97;;;14.80;99.90;;;;;;5044369;28;20052;-59
2023/07/21 08:04:47;;;;;;;9.80;5.30;;;14.80;99.90;;;;;;5040579;28;20052;-60
2023/07/21 08:07:16;;;;;;;12.10;4.97;;;14.90;99.90;;;;;;5042216;28;20056;-60
2023/07/21 08:09:44;;;;;;;11.98;5.88;;;15.00;99.90;;;;;;5041375;28;20040;-58
2023/07/21 08:12:12;;;;;;;9.82;5.25;;;15.10;99.90;;;;;;5038460;28;20044;-59
2023/07/21 08:14:39;;;;;;;11.65;4.88;;;15.10;99.90;;;;;;5049159;28;20041;-58
2023/07/21 08:17:08;;;;;;;11.57;5.30;;;15.30;99.90;;;;;;5044052;28;20052;-58
2023/07/21 08:19:36;;;;;;;10.82;5.03;;;15.30;99.90;;;;;;5033929;28;20053;-59
2023/07/21 08:22:07;;;;;;;12.98;5.25;;;15.40;99.90;;;;;;5044858;28;20037;-61
2023/07/21 08:24:35;;;;;;;10.57;4.90;;;15.40;99.90;;;;;;5045510;28;20037;-61
2023/07/21 08:27:03;;;;;;;11.15;5.70;;;15.40;99.90;;;;;;5042590;28;20041;-58
2023/07/21 08:29:30;;;;;;;14.55;5.45;;;15.40;99.90;;;;;;5041385;28;20052;-58
2023/07/21 08:31:59;;;;;;;12.60;5.30;;;15.50;99.90;;;;;;5045488;28;20048;-59
2023/07/21 08:34:27;;;;;;;11.57;6.43;;;15.50;99.90;;;;;;5046073;28;21012;-58
2023/07/21 08:36:55;;;;;;;12.35;5.68;;;15.60;99.90;;;;;;5042936;28;20051;-58
2023/07/21 08:39:24;;;;;;;11.98;5.85;;;15.60;99.90;;;;;;5044858;28;20409;-58
2023/07/21 08:41:54;;;;;;;8.18;5.40;;;15.70;99.90;;;;;;5040314;28;20592;-58
2023/07/21 08:44:23;;;;;;;14.90;7.20;;;15.70;99.90;;;;;;5059998;28;20036;-58
2023/07/21 08:46:51;;;;;;;14.50;6.90;;;15.70;99.90;;;;;;5050844;28;20052;-57
2023/07/21 08:49:18;;;;;;;13.18;6.55;;;15.80;99.90;;;;;;5051119;28;20041;-57
2023/07/21 08:51:46;;;;;;;15.05;7.40;;;15.80;99.90;;;;;;5051225;28;20461;-61
2023/07/21 08:54:14;;;;;;;15.85;7.32;;;15.70;99.90;;;;;;5049770;28;20040;-60
2023/07/21 08:56:42;;;;;;;16.02;7.50;;;15.70;99.90;;;;;;5049351;28;20049;-61
2023/07/21 08:59:09;;;;;;;17.98;6.65;;;15.60;99.90;;;;;;5049788;28;20512;-61
2023/07/21 09:01:37;;;;;;;9.65;5.90;;;15.50;99.90;;;;;;5028507;28;20067;-62
2023/07/21 09:04:23;;;;;;;8.50;5.43;;;15.50;99.90;;;;;;5050200;28;20047;-61
2023/07/21 09:06:54;;;;;;;11.50;5.07;;;15.40;99.90;;;;;;5047508;28;20379;-62
2023/07/21 09:09:24;;;;;;;7.18;4.18;;;15.40;99.90;;;;;;5048933;28;20515;-59
2023/07/21 09:12:11;;;;;;;8.15;4.13;;;15.40;99.90;;;;;;5048967;28;20501;-61
2023/07/21 09:14:40;;;;;;;7.03;4.07;;;15.40;99.90;;;;;;5055570;28;20647;-64
2023/07/21 09:17:09;;;;;;;6.95;3.80;;;15.40;99.90;;;;;;5051778;28;20068;-61
2023/07/21 09:19:42;;;;;;;7.07;4.00;;;15.40;99.90;;;;;;5050519;28;20063;-63
2023/07/21 09:22:11;;;;;;;6.47;3.97;;;15.40;99.90;;;;;;5050689;28;20053;-64
2023/07/21 09:24:49;;;;;;;6.00;3.40;;;15.40;99.90;;;;;;5048292;28;20045;-58
2023/07/21 09:27:19;;;;;;;8.68;4.70;;;15.30;99.90;;;;;;5048195;28;20044;-57
2023/07/21 09:29:46;;;;;;;7.25;4.40;;;15.30;99.90;;;;;;5049823;28;20067;-59
2023/07/21 09:32:19;;;;;;;6.30;3.75;;;15.30;99.90;;;;;;5048496;28;20052;-60
2023/07/21 09:34:58;;;;;;;8.32;3.88;;;15.30;99.90;;;;;;5050938;28;20055;-57
2023/07/21 09:37:28;;;;;;;7.78;4.30;;;15.30;99.90;;;;;;5049802;28;20481;-60
2023/07/21 09:39:57;;;;;;;7.90;4.40;;;15.40;99.90;;;;;;5050319;28;20049;-61
2023/07/21 09:42:26;;;;;;;7.10;4.03;;;15.40;99.90;;;;;;5049905;28;20297;-62
2023/07/21 09:44:56;;;;;;;5.97;3.38;;;15.60;99.90;;;;;;5049408;28;20044;-61
2023/07/21 09:47:24;;;;;;;;;;;15.70;99.90;;;;;;5053003;28;20049;-59
2023/07/21 09:49:54;;;;;;;5.22;2.58;;;15.70;99.90;;;;;;5050041;28;19932;-62
2023/07/21 09:52:23;;;;;;;5.50;2.65;;;15.70;99.90;;;;;;5048925;28;20056;-58
2023/07/21 09:55:02;;;;;;;6.70;3.00;;;15.80;99.90;;;;;;5052690;28;20048;-57
2023/07/21 09:57:34;;;;;;;6.63;3.00;;;15.70;99.90;;;;;;5040487;28;20037;-58
2023/07/21 10:00:07;;;;;;;7.97;2.80;;;15.80;99.90;;;;;;5048131;28;20049;-57
2023/07/21 10:02:50;;;;;;;7.63;3.65;;;15.80;99.90;;;;;;5045627;28;20649;-57
2023/07/21 10:05:18;;;;;;;4.85;3.00;;;15.90;99.90;;;;;;5046346;28;20057;-57
2023/07/21 10:07:53;;;;;;;3.97;2.20;;;16.00;99.90;;;;;;5046959;28;20076;-58
2023/07/21 10:10:22;;;;;;;4.88;2.80;;;16.10;99.90;;;;;;5044209;28;20032;-57
2023/07/21 10:12:52;;;;;;;4.60;2.45;;;16.30;99.90;;;;;;5045081;28;20049;-60
2023/07/21 10:15:22;;;;;;;4.32;1.83;;;16.50;99.90;;;;;;5053608;28;20059;-57
2023/07/21 10:18:06;;;;;;;4.85;2.08;;;16.70;99.90;;;;;;5048601;28;20413;-58
2023/07/21 10:20:44;;;;;;;3.65;1.77;;;16.90;99.90;;;;;;5049321;28;20053;-60
2023/07/21 10:23:15;;;;;;;3.08;2.22;;;17.10;99.90;;;;;;5048147;28;20492;-61
2023/07/21 10:25:56;;;;;;;5.50;2.40;;;17.20;99.90;;;;;;5048659;28;20495;-58
2023/07/21 10:28:30;;;;;;;4.07;2.28;;;17.30;99.90;;;;;;5042222;28;20049;-61
2023/07/21 10:31:25;;;;;;;9.75;2.50;;;17.40;99.90;;;;;;5041548;28;20064;-60
2023/07/21 10:34:06;;;;;;;5.20;2.58;;;17.50;99.90;;;;;;5048972;28;20052;-58
2023/07/21 10:36:41;;;;;;;;;;;17.40;99.90;;;;;;5044701;28;20385;-58
2023/07/21 10:39:11;;;;;;;1.85;1.30;;;17.30;99.90;;;;;;5050919;28;19921;-58
2023/07/21 10:41:39;;;;;;;2.03;0.85;;;17.20;99.90;;;;;;5045221;28;20253;-58
2023/07/21 10:44:09;;;;;;;5.05;1.40;;;17.00;99.90;;;;;;5046381;28;20037;-58
2023/07/21 10:46:39;;;;;;;5.05;1.40;;;16.90;99.90;;;;;;5047640;28;20045;-57
2023/07/21 10:49:11;;;;;;;6.50;2.10;;;16.90;99.90;;;;;;5048754;28;20051;-59
2023/07/21 10:51:44;;;;;;;3.55;1.70;;;17.10;99.90;;;;;;5048744;28;20060;-61
2023/07/21 10:54:13;;;;;;;3.10;1.45;;;17.20;99.90;;;;;;5046142;28;20048;-59
2023/07/21 10:56:49;;;;;;;4.03;1.80;;;17.40;99.90;;;;;;5046840;28;20056;-57
2023/07/21 10:59:19;;;;;;;5.55;2.08;;;17.50;99.90;;;;;;5043227;28;20492;-58
2023/07/21 11:01:50;;;;;;;7.65;1.83;;;17.60;99.90;;;;;;5045383;28;20412;-58
2023/07/21 11:04:20;;;;;;;4.60;2.05;;;17.70;99.90;;;;;;5045374;28;20041;-58
2023/07/21 11:06:53;;;;;;;5.05;2.38;;;17.80;99.90;;;;;;5044645;28;20053;-58
2023/07/21 11:09:21;;;;;;;6.93;2.53;;;17.90;99.90;;;;;;5046659;28;20477;-58
2023/07/21 11:11:52;;;;;;;5.45;2.58;;;17.80;99.90;;;;;;5038414;28;20060;-60
2023/07/21 11:14:25;;;;;;;7.15;2.65;;;17.80;99.90;;;;;;5051080;28;20052;-57
2023/07/21 11:16:59;;;;;;;6.60;2.80;;;17.90;99.90;;;;;;5045308;28;20048;-57
2023/07/21 11:19:33;;;;;;;4.32;2.65;;;17.90;99.90;;;;;;5044733;28;20057;-58
2023/07/21 11:22:04;;;;;;;6.28;2.53;;;18.00;99.90;;;;;;5041411;28;20041;-57
2023/07/21 11:24:33;;;;;;;4.93;2.20;;;18.10;99.90;;;;;;5045704;28;20048;-57
2023/07/21 11:27:09;;;;;;;6.82;2.33;;;18.30;99.90;;;;;;5042785;28;20956;-57
2023/07/21 11:29:43;;;;;;;4.25;2.30;;;18.50;99.90;;;;;;5042503;28;20504;-58
2023/07/21 11:32:25;;;;;;;6.22;2.65;;;18.80;99.90;;;;;;5027259;28;20049;-58
2023/07/21 11:34:58;;;;;;;5.80;2.58;;;18.90;99.90;;;;;;5043352;28;20052;-58
2023/07/21 11:37:45;;;;;;;6.10;2.40;;;19.30;99.90;;;;;;5041510;28;20061;-58
2023/07/21 11:40:24;;;;;;;9.68;2.92;;;19.60;99.90;;;;;;5044562;28;20048;-57
2023/07/21 11:42:58;;;;;;;9.43;2.70;;;19.90;99.90;;;;;;5041380;28;20397;-58
2023/07/21 11:45:35;;;;;;;4.53;2.22;;;20.10;99.90;;;;;;5038333;28;20037;-59
2023/07/21 11:48:17;;;;;;;7.32;2.70;;;20.20;99.90;;;;;;5042854;28;20044;-57
2023/07/21 11:50:50;;;;;;;8.27;2.75;;;20.20;99.90;;;;;;5044178;28;20127;-59
2023/07/21 11:53:19;;;;;;;8.48;3.00;;;20.20;99.90;;;;;;5043312;28;20064;-58
2023/07/21 11:55:46;;;;;;;6.85;2.50;;;20.30;99.90;;;;;;5040028;28;20048;-58
2023/07/21 11:58:14;;;;;;;7.60;2.67;;;20.60;99.90;;;;;;5042476;28;20048;-58
2023/07/21 12:00:43;;;;;;;8.70;2.40;;;20.70;99.90;;;;;;5043994;28;20041;-58
2023/07/21 12:03:12;;;;;;;3.77;2.50;;;20.90;99.90;;;;;;5042645;28;20412;-58
2023/07/21 12:05:40;;;;;;;5.28;1.92;;;20.80;99.90;;;;;;5044068;28;20041;-58
2023/07/21 12:08:07;;;;;;;5.63;2.35;;;20.90;99.90;;;;;;5044082;28;20061;-59
2023/07/21 12:10:35;;;;;;;5.15;2.10;;;21.30;99.90;;;;;;5044148;28;20059;-59
2023/07/21 12:13:04;;;;;;;5.22;1.80;;;21.60;99.90;;;;;;5039126;28;20045;-57
2023/07/21 12:15:33;;;;;;;4.43;2.05;;;21.60;99.90;;;;;;5039780;28;20048;-58
2023/07/21 12:18:03;;;;;;;5.68;2.10;;;21.60;99.90;;;;;;5041699;28;20497;-59
2023/07/21 12:20:31;;;;;;;7.25;2.00;;;21.40;99.90;;;;;;5036212;28;20476;-58
2023/07/21 12:22:58;;;;;;;4.47;2.00;;;21.20;99.90;;;;;;5041391;28;20508;-58
2023/07/21 12:25:27;;;;;;;10.10;2.53;;;21.20;99.90;;;;;;5043868;28;20502;-59
2023/07/21 12:27:54;;;;;;;5.15;2.28;;;21.00;99.90;;;;;;5031617;28;20053;-59
2023/07/21 12:30:22;;;;;;;5.50;2.10;;;20.80;99.90;;;;;;5039923;28;20045;-58
2023/07/21 12:32:50;;;;;;;6.50;2.65;;;20.70;99.90;;;;;;5043989;28;20049;-60
2023/07/21 12:35:19;;;;;;;5.60;1.90;;;20.60;99.90;;;;;;5044645;28;20044;-58
2023/07/21 12:37:46;;;;;;;3.92;1.90;;;20.70;99.90;;;;;;5043632;28;20056;-58
2023/07/21 12:40:15;;;;;;;3.97;1.90;;;20.80;99.90;;;;;;5044254;28;20037;-58
2023/07/21 12:42:42;;;;;;;4.70;1.80;;;20.80;99.90;;;;;;5041450;28;20046;-58
2023/07/21 12:45:11;;;;;;;6.10;2.30;;;21.00;99.90;;;;;;5037925;28;20500;-61
2023/07/21 12:47:38;;;;;;;7.22;2.38;;;21.30;99.90;;;;;;5040184;28;20065;-64
2023/07/21 12:50:07;;;;;;;6.93;2.03;;;21.80;99.90;;;;;;5040954;28;20041;-62
2023/07/21 12:52:34;;;;;;;8.60;2.40;;;22.20;99.90;;;;;;5038931;28;20072;-65
2023/07/21 12:55:03;;;;;;;3.78;1.70;;;23.30;99.90;;;;;;5046682;28;20049;-64
2023/07/21 12:57:31;;;;;;;3.85;1.67;;;23.30;99.90;;;;;;5045230;28;20045;-63
2023/07/21 12:59:58;;;;;;;6.47;2.03;;;23.70;99.70;;;;;;5037864;28;20400;-65